Time;durP1;ratioP1;P1;durP2;ratioP2;P2;SDS_P1;SDS_P2;PMS_P1;PMS_P2;Temp;Humidity;BMP_temperature;BMP_pressure;BME280_temperature;BME280_humidity;BME280_pressure;Samples;Min_cycle;Max_cycle;Signal;HPM_P1;HPM_P2
2022/09/05 00:02:55;;;;;;;2.88;1.55;;;18.20;99.90;;;;;;4972563;28;20031;-71
2022/09/05 00:05:24;;;;;;;4.93;1.20;;;18.20;99.90;;;;;;4957645;28;20039;-70
2022/09/05 00:07:55;;;;;;;3.00;1.48;;;18.10;99.90;;;;;;4972373;28;20027;-70
2022/09/05 00:10:34;;;;;;;1.77;1.33;;;18.10;99.90;;;;;;4972969;28;20062;-70
2022/09/05 00:13:03;;;;;;;7.00;1.42;;;18.10;99.90;;;;;;4973517;28;20034;-71
2022/09/05 00:15:38;;;;;;;3.20;1.65;;;18.10;99.90;;;;;;4972561;28;20031;-70
2022/09/05 00:18:20;;;;;;;5.22;1.85;;;18.10;99.90;;;;;;4972862;28;20058;-71
2022/09/05 00:21:23;;;;;;;3.25;1.60;;;18.10;99.90;;;;;;4973021;28;20103;-72
2022/09/05 00:24:16;;;;;;;8.38;1.90;;;18.00;99.90;;;;;;4986662;28;20063;-70
2022/09/05 00:27:10;;;;;;;3.25;1.65;;;18.00;99.90;;;;;;4972913;28;20114;-71
2022/09/05 00:30:12;;;;;;;2.72;1.75;;;17.90;99.90;;;;;;4972196;28;20038;-71
2022/09/05 00:33:09;;;;;;;3.70;1.90;;;17.90;99.90;;;;;;4931616;29;20024;-70
2022/09/05 00:35:49;;;;;;;2.63;1.25;;;17.90;99.90;;;;;;4973044;28;20051;-70
2022/09/05 00:38:19;;;;;;;3.95;1.65;;;17.90;99.90;;;;;;4972931;28;20033;-71
2022/09/05 00:40:58;;;;;;;2.75;1.67;;;17.90;99.90;;;;;;4972636;28;20055;-70
2022/09/05 00:43:29;;;;;;;2.03;1.40;;;17.90;99.90;;;;;;4972420;28;20026;-70
2022/09/05 00:46:00;;;;;;;1.58;1.15;;;17.80;99.90;;;;;;4972575;28;20026;-69
2022/09/05 00:48:48;;;;;;;2.13;1.60;;;17.90;99.90;;;;;;4972293;28;20146;-70
2022/09/05 00:51:29;;;;;;;2.17;1.33;;;17.80;99.90;;;;;;4972618;28;20071;-70
2022/09/05 00:54:01;;;;;;;7.78;1.55;;;17.80;99.90;;;;;;4973006;28;20028;-69
2022/09/05 00:56:45;;;;;;;4.65;1.83;;;17.80;99.90;;;;;;4972981;28;20037;-70
2022/09/05 00:59:23;;;;;;;2.55;1.42;;;17.80;99.90;;;;;;4972543;28;20039;-71
2022/09/05 01:02:20;;;;;;;4.57;1.70;;;17.70;99.90;;;;;;4972285;28;20034;-69
2022/09/05 01:05:00;;;;;;;3.55;1.70;;;17.70;99.90;;;;;;4972463;28;20050;-71
2022/09/05 01:07:43;;;;;;;2.17;1.23;;;17.70;99.90;;;;;;4972437;28;20050;-69
2022/09/05 01:10:33;;;;;;;1.70;1.25;;;17.70;99.90;;;;;;4971727;28;20039;-72
2022/09/05 01:13:22;;;;;;;4.38;1.77;;;17.70;99.90;;;;;;4971505;28;20086;-70
2022/09/05 01:16:11;;;;;;;10.27;1.77;;;17.60;99.90;;;;;;4967121;28;20063;-70
2022/09/05 01:19:07;;;;;;;3.80;1.75;;;17.60;99.90;;;;;;4968315;28;20035;-69
2022/09/05 01:21:53;;;;;;;4.50;1.88;;;17.60;99.90;;;;;;4971476;28;20039;-71
2022/09/05 01:24:52;;;;;;;2.25;1.35;;;17.60;99.90;;;;;;4976772;28;20031;-69
2022/09/05 01:27:47;;;;;;;2.60;1.77;;;17.50;99.90;;;;;;4971852;28;20037;-70
2022/09/05 01:30:20;;;;;;;2.63;1.42;;;17.50;99.90;;;;;;4966942;28;20111;-71
2022/09/05 01:33:07;;;;;;;2.97;1.60;;;17.50;99.90;;;;;;4976725;28;20042;-69
2022/09/05 04:51:48;;;;;;;5.47;2.42;;;16.30;99.90;;;;;;4978586;28;20078;-71
2022/09/05 04:54:16;;;;;;;2.78;1.77;;;16.20;99.90;;;;;;4986043;28;20042;-71
2022/09/05 04:56:47;;;;;;;2.10;1.55;;;16.20;99.90;;;;;;4985573;28;20048;-72
2022/09/05 04:59:29;;;;;;;2.45;1.85;;;16.20;99.90;;;;;;4986530;28;20131;-70
2022/09/05 05:02:00;;;;;;;2.92;1.70;;;16.20;99.90;;;;;;4985922;28;20039;-72
2022/09/05 05:04:27;;;;;;;3.35;1.98;;;16.20;99.90;;;;;;4985534;28;20343;-71
2022/09/05 05:07:18;;;;;;;3.40;2.13;;;16.20;99.90;;;;;;4988255;28;20053;-73
2022/09/05 05:09:51;;;;;;;7.53;2.28;;;16.20;99.90;;;;;;4984298;28;20054;-71
2022/09/05 05:12:26;;;;;;;2.33;1.67;;;16.20;99.90;;;;;;4982579;28;20046;-72
2022/09/05 05:15:01;;;;;;;3.10;1.80;;;16.30;99.90;;;;;;4983024;28;20035;-71
2022/09/05 05:17:38;;;;;;;3.47;2.15;;;16.20;99.90;;;;;;4985239;28;20022;-72
2022/09/05 05:20:29;;;;;;;4.90;1.83;;;16.20;99.90;;;;;;4984900;28;20117;-71
2022/09/05 05:23:06;;;;;;;3.55;2.00;;;16.30;99.90;;;;;;4985101;28;20412;-71
2022/09/05 05:25:40;;;;;;;3.25;1.77;;;16.30;99.90;;;;;;4982732;28;20039;-71
2022/09/05 05:28:10;;;;;;;3.60;1.85;;;16.30;99.90;;;;;;4985002;28;20042;-71
2022/09/05 05:30:37;;;;;;;5.10;1.95;;;16.30;99.90;;;;;;4984510;28;20110;-71
2022/09/05 05:33:26;;;;;;;4.10;2.10;;;16.30;99.90;;;;;;4983702;28;20062;-71
2022/09/05 05:35:53;;;;;;;3.33;1.65;;;16.30;99.90;;;;;;4984815;28;20022;-71
2022/09/05 05:38:24;;;;;;;3.75;1.58;;;16.30;99.90;;;;;;4986007;28;20107;-70
2022/09/05 05:41:00;;;;;;;2.70;1.65;;;16.30;99.90;;;;;;4985802;28;20046;-73
2022/09/05 05:43:35;;;;;;;4.85;2.08;;;16.40;99.90;;;;;;4985537;28;20042;-70
2022/09/05 05:46:00;;;;;;;5.35;2.40;;;16.40;99.90;;;;;;4984311;28;20033;-71
2022/09/05 05:48:39;;;;;;;2.72;1.77;;;16.40;99.90;;;;;;4984461;28;20098;-71
2022/09/05 05:51:20;;;;;;;5.18;2.22;;;16.50;99.90;;;;;;4984683;28;20457;-70
2022/09/05 05:54:23;;;;;;;9.32;2.42;;;16.50;99.90;;;;;;4985139;28;20107;-70
2022/09/05 05:57:21;;;;;;;3.03;2.03;;;16.50;99.90;;;;;;4981648;28;20026;-72
2022/09/05 06:00:03;;;;;;;2.90;1.98;;;16.60;99.90;;;;;;4950926;28;20046;-71
2022/09/05 06:02:44;;;;;;;3.53;1.75;;;16.60;99.90;;;;;;4984130;28;20026;-72
2022/09/05 06:05:18;;;;;;;8.25;2.35;;;16.60;99.90;;;;;;4984410;28;20450;-72
2022/09/05 06:08:06;;;;;;;3.53;2.13;;;16.70;99.90;;;;;;4984636;28;20077;-71
2022/09/05 06:10:38;;;;;;;5.07;2.72;;;16.70;99.90;;;;;;4984930;28;20049;-71
2022/09/05 06:13:12;;;;;;;5.70;2.35;;;16.70;99.90;;;;;;4984902;28;20018;-72
2022/09/05 06:15:51;;;;;;;4.43;2.13;;;16.80;99.90;;;;;;4984671;28;20023;-72
2022/09/05 06:18:32;;;;;;;3.15;1.88;;;16.80;99.90;;;;;;4984709;28;20031;-71
2022/09/05 06:21:12;;;;;;;5.70;2.13;;;16.80;99.90;;;;;;4984176;28;20098;-72
2022/09/05 06:24:25;;;;;;;3.83;2.10;;;16.90;99.90;;;;;;4982970;28;20023;-72
2022/09/05 06:26:53;;;;;;;3.22;2.08;;;17.00;99.90;;;;;;4908742;28;20039;-73
2022/09/05 06:29:47;;;;;;;4.93;2.05;;;17.10;99.90;;;;;;4983261;28;20035;-72
2022/09/05 06:32:40;;;;;;;2.50;1.60;;;17.10;99.90;;;;;;4983891;28;20050;-72
2022/09/05 06:35:27;;;;;;;2.85;1.88;;;17.30;99.90;;;;;;4983006;28;20487;-72
2022/09/05 06:38:25;;;;;;;4.50;2.17;;;17.30;99.90;;;;;;4984338;28;20102;-71
2022/09/05 06:41:32;;;;;;;3.50;1.90;;;17.40;99.90;;;;;;4984565;28;20470;-73
2022/09/05 06:44:26;;;;;;;4.70;2.80;;;17.50;99.90;;;;;;4967636;28;20070;-72
2022/09/05 06:46:56;;;;;;;3.92;2.20;;;17.50;99.90;;;;;;4983767;28;20046;-73
2022/09/05 06:49:54;;;;;;;4.47;1.77;;;17.60;99.90;;;;;;4980503;28;20059;-74
2022/09/05 06:52:23;;;;;;;4.47;1.77;;;17.50;99.90;;;;;;4956212;28;20486;-73
2022/09/05 06:55:17;;;;;;;4.07;2.17;;;17.60;99.90;;;;;;4982794;28;20100;-72
2022/09/05 06:58:11;;;;;;;3.90;2.40;;;17.70;99.90;;;;;;4980985;28;20031;-72
2022/09/05 07:00:44;;;;;;;3.23;2.10;;;17.80;99.90;;;;;;4981939;28;20066;-72
2022/09/05 07:03:32;;;;;;;1.60;1.40;;;17.90;99.90;;;;;;4982523;28;20294;-72
2022/09/05 07:06:00;;;;;;;2.78;2.17;;;18.00;99.90;;;;;;4984026;28;20027;-73
2022/09/05 07:08:43;;;;;;;4.68;2.50;;;18.00;99.90;;;;;;4983681;28;20041;-71
2022/09/05 07:11:56;;;;;;;3.63;1.60;;;18.10;99.90;;;;;;4982817;28;20042;-73
2022/09/05 07:14:29;;;;;;;4.95;2.33;;;18.30;99.90;;;;;;4948971;28;20035;-72
2022/09/05 07:17:09;;;;;;;5.38;2.30;;;18.40;99.90;;;;;;4982255;28;20053;-73
2022/09/05 07:19:50;;;;;;;3.38;1.80;;;18.50;99.90;;;;;;4983083;28;20027;-76
2022/09/05 07:22:25;;;;;;;12.82;2.22;;;18.70;99.90;;;;;;4983913;28;20033;-71
2022/09/05 07:24:52;;;;;;;5.45;2.00;;;18.90;99.90;;;;;;4983541;28;20026;-72
2022/09/05 07:27:41;;;;;;;3.25;1.88;;;19.10;99.90;;;;;;4965586;28;20105;-72
2022/09/05 07:30:07;;;;;;;3.85;2.45;;;19.20;99.90;;;;;;4982850;28;20039;-74
2022/09/05 07:32:43;;;;;;;3.17;2.15;;;19.40;99.90;;;;;;4982844;28;20022;-75
2022/09/05 07:35:28;;;;;;;6.88;2.25;;;19.40;99.90;;;;;;4982636;28;20031;-71
2022/09/05 07:38:14;;;;;;;3.05;1.85;;;19.50;99.90;;;;;;4983251;28;20387;-73
2022/09/05 07:41:14;;;;;;;5.38;2.13;;;19.50;99.90;;;;;;4982851;28;20026;-73
2022/09/05 07:43:43;;;;;;;8.25;2.80;;;19.50;99.90;;;;;;4944762;28;20586;-73
2022/09/05 07:46:11;;;;;;;4.70;2.13;;;19.50;99.90;;;;;;4982562;28;20156;-71
2022/09/05 07:48:47;;;;;;;2.95;1.75;;;19.40;99.90;;;;;;4982790;28;20026;-72
2022/09/05 07:51:24;;;;;;;2.13;1.73;;;19.40;99.90;;;;;;4982830;28;20033;-72
2022/09/05 07:53:52;;;;;;;4.15;1.75;;;19.30;99.90;;;;;;4983043;28;20430;-72
2022/09/05 07:56:52;;;;;;;2.35;1.70;;;19.30;99.90;;;;;;4981672;28;21686;-73
2022/09/05 07:59:19;;;;;;;3.22;2.20;;;19.30;99.90;;;;;;4982744;28;20035;-72
2022/09/05 08:01:46;;;;;;;4.85;2.50;;;19.30;99.90;;;;;;4982083;28;20027;-73
2022/09/05 08:04:26;;;;;;;3.83;1.73;;;19.30;99.90;;;;;;4981750;28;20554;-72
2022/09/05 08:06:55;;;;;;;2.60;1.85;;;19.30;99.90;;;;;;4982080;28;20037;-76
2022/09/05 08:09:29;;;;;;;7.57;2.58;;;19.30;99.90;;;;;;4965531;28;20043;-74
2022/09/05 08:12:08;;;;;;;6.32;2.55;;;19.40;99.90;;;;;;4982645;28;20121;-73
2022/09/05 08:14:44;;;;;;;3.55;2.42;;;19.40;99.90;;;;;;4982938;28;20030;-72
2022/09/05 08:17:16;;;;;;;3.35;2.15;;;19.60;99.90;;;;;;4981627;28;20597;-71
2022/09/05 08:19:55;;;;;;;2.72;1.60;;;19.70;99.90;;;;;;4979603;28;20634;-74
2022/09/05 08:22:34;;;;;;;4.65;2.25;;;19.70;99.90;;;;;;4980745;28;20041;-73
2022/09/05 08:25:07;;;;;;;5.85;2.08;;;19.70;99.90;;;;;;4982572;28;20364;-74
2022/09/05 08:27:49;;;;;;;6.47;2.50;;;19.80;99.90;;;;;;4981244;28;20026;-75
2022/09/05 08:30:16;;;;;;;2.97;1.92;;;19.70;99.90;;;;;;4982853;28;20046;-74
2022/09/05 08:32:52;;;;;;;3.92;2.10;;;19.90;99.90;;;;;;4964166;28;20544;-76
2022/09/05 08:35:22;;;;;;;3.47;2.25;;;20.00;99.90;;;;;;4982027;28;20027;-75
2022/09/05 08:37:53;;;;;;;2.72;1.95;;;20.20;99.90;;;;;;4981079;28;20760;-76
2022/09/05 08:40:27;;;;;;;3.80;2.13;;;20.40;99.90;;;;;;4965535;28;20363;-73
2022/09/05 08:43:14;;;;;;;4.28;2.50;;;20.60;99.90;;;;;;4981344;28;20419;-75
2022/09/05 08:45:54;;;;;;;4.53;2.60;;;20.80;99.90;;;;;;4980946;28;20026;-73
2022/09/05 08:48:55;;;;;;;5.97;2.25;;;21.00;99.90;;;;;;4981037;28;20071;-73
2022/09/05 08:51:45;;;;;;;6.63;2.13;;;21.30;99.90;;;;;;4982926;28;20042;-73
2022/09/05 08:54:16;;;;;;;2.47;1.83;;;21.60;99.90;;;;;;4978312;28;20030;-71
2022/09/05 08:56:55;;;;;;;3.35;2.20;;;21.80;99.90;;;;;;4961630;28;20206;-74
2022/09/05 08:59:46;;;;;;;4.75;2.58;;;21.90;99.90;;;;;;4977667;28;20156;-74
2022/09/05 09:02:17;;;;;;;4.60;2.30;;;22.00;99.90;;;;;;4961675;28;20047;-72
2022/09/05 09:04:56;;;;;;;5.35;2.38;;;22.20;99.90;;;;;;4981374;28;20035;-73
2022/09/05 09:07:42;;;;;;;3.20;2.33;;;22.30;99.90;;;;;;4963828;28;20451;-77
2022/09/05 09:10:33;;;;;;;4.45;1.80;;;22.40;99.90;;;;;;4980382;28;20066;-74
2022/09/05 09:13:14;;;;;;;3.10;2.38;;;22.60;99.90;;;;;;4962088;28;20039;-74
2022/09/05 09:16:21;;;;;;;3.15;1.77;;;22.70;99.90;;;;;;4980335;28;20023;-76
2022/09/05 09:18:46;;;;;;;4.15;2.28;;;22.80;99.90;;;;;;4980331;28;20523;-73
2022/09/05 09:21:40;;;;;;;4.15;2.03;;;22.90;99.90;;;;;;4963766;28;20461;-71
2022/09/05 09:24:40;;;;;;;6.68;2.78;;;22.90;99.90;;;;;;4981398;28;20121;-75
2022/09/05 09:27:15;;;;;;;3.78;2.08;;;23.00;99.90;;;;;;4981493;28;20522;-74
2022/09/05 09:29:41;;;;;;;5.63;2.20;;;23.10;99.90;;;;;;4964047;28;20035;-77
2022/09/05 09:32:13;;;;;;;13.88;2.58;;;23.30;99.90;;;;;;4982125;28;20034;-73
2022/09/05 09:34:48;;;;;;;5.05;2.42;;;23.40;99.90;;;;;;4981811;28;20019;-74
2022/09/05 09:37:55;;;;;;;12.15;2.80;;;23.40;99.90;;;;;;4980981;28;20034;-76
2022/09/05 09:40:47;;;;;;;6.97;2.45;;;23.50;99.90;;;;;;4967174;28;22110;-76
2022/09/05 09:43:22;;;;;;;5.90;2.40;;;23.70;99.90;;;;;;4984534;28;20096;-74
2022/09/05 09:46:19;;;;;;;3.75;2.30;;;23.70;99.90;;;;;;4967811;28;20031;-71
2022/09/05 09:49:02;;;;;;;3.40;1.60;;;23.90;99.90;;;;;;4982938;28;20023;-75
2022/09/05 09:51:59;;;;;;;3.17;2.05;;;24.10;99.90;;;;;;4984275;28;20030;-72
2022/09/05 09:55:15;;;;;;;5.28;2.20;;;24.20;99.90;;;;;;4983763;28;20031;-76
2022/09/05 09:58:10;;;;;;;3.50;2.55;;;24.10;99.90;;;;;;4982183;28;20035;-73
2022/09/05 10:00:56;;;;;;;;;;;24.20;99.90;;;;;;4937901;28;20396;-76
2022/09/05 10:03:34;;;;;;;3.78;2.10;;;24.20;99.90;;;;;;4970580;28;19910;-75
2022/09/05 10:06:14;;;;;;;4.80;2.50;;;24.30;99.90;;;;;;4984674;28;20079;-73
2022/09/05 10:09:10;;;;;;;3.78;1.80;;;24.30;99.90;;;;;;4982896;28;20510;-74
2022/09/05 10:12:21;;;;;;;6.30;1.88;;;24.30;99.90;;;;;;4981286;28;20042;-74
2022/09/05 10:14:56;;;;;;;5.28;3.28;;;24.50;99.90;;;;;;4984626;28;20031;-74
2022/09/05 10:17:54;;;;;;;8.25;2.85;;;24.70;99.90;;;;;;4965609;28;20053;-74
2022/09/05 10:20:47;;;;;;;5.40;2.42;;;24.80;99.90;;;;;;4940689;28;20575;-75
2022/09/05 10:23:32;;;;;;;3.33;2.03;;;25.00;99.90;;;;;;4982454;28;20053;-73
2022/09/05 10:26:26;;;;;;;10.00;2.63;;;25.20;99.90;;;;;;4982533;28;20027;-73
2022/09/05 10:29:40;;;;;;;3.17;2.05;;;25.40;99.90;;;;;;4984689;28;20039;-77
2022/09/05 10:32:15;;;;;;;2.80;2.03;;;25.60;99.90;;;;;;4984010;28;20038;-75
2022/09/05 10:34:45;;;;;;;5.55;2.60;;;25.60;99.90;;;;;;4983419;28;20048;-76
2022/09/05 10:37:12;;;;;;;4.53;2.15;;;25.60;99.90;;;;;;4966718;28;20125;-72
2022/09/05 10:39:44;;;;;;;6.15;2.08;;;25.60;99.90;;;;;;4984359;28;20080;-74
2022/09/05 10:42:33;;;;;;;3.15;2.00;;;25.60;99.90;;;;;;4980799;28;20031;-74
2022/09/05 10:45:04;;;;;;;3.00;1.90;;;25.70;99.90;;;;;;4966595;28;20108;-73
2022/09/05 10:47:58;;;;;;;3.08;2.15;;;25.80;99.90;;;;;;4983268;28;20077;-77
2022/09/05 10:50:29;;;;;;;8.38;2.60;;;25.90;99.90;;;;;;4961367;28;20043;-74
2022/09/05 10:53:14;;;;;;;3.88;2.20;;;26.00;99.90;;;;;;4962583;29;20031;-73
2022/09/05 10:55:50;;;;;;;3.70;1.88;;;26.00;99.90;;;;;;4944469;28;20129;-74
2022/09/05 10:58:27;;;;;;;2.75;1.90;;;26.10;99.90;;;;;;4962825;28;20036;-72
2022/09/05 11:01:21;;;;;;;3.55;2.22;;;26.00;99.90;;;;;;4956050;28;20043;-76
2022/09/05 11:04:13;;;;;;;3.60;1.90;;;26.10;99.90;;;;;;4971391;28;20055;-73
2022/09/05 11:06:41;;;;;;;4.35;2.58;;;26.10;99.90;;;;;;4949341;28;20043;-72
2022/09/05 11:09:28;;;;;;;5.43;2.40;;;26.30;99.90;;;;;;4963304;29;20043;-74
2022/09/05 11:12:09;;;;;;;3.05;1.92;;;26.40;99.90;;;;;;4963508;28;20404;-73
2022/09/05 11:14:51;;;;;;;3.72;2.20;;;26.60;99.90;;;;;;4963316;28;20126;-75
2022/09/05 11:17:35;;;;;;;7.90;2.20;;;26.60;99.90;;;;;;4963582;28;20046;-75
2022/09/05 11:20:27;;;;;;;3.35;1.88;;;26.60;99.90;;;;;;4962666;29;20062;-74
2022/09/05 11:23:01;;;;;;;3.20;1.60;;;26.50;99.90;;;;;;4962503;28;20043;-70
2022/09/05 11:25:27;;;;;;;;;;;26.60;99.90;;;;;;4964385;28;20023;-75
2022/09/05 11:28:03;;;;;;;3.22;1.40;;;26.70;99.90;;;;;;4961801;28;19907;-73
2022/09/05 11:30:39;;;;;;;2.88;1.80;;;26.70;99.90;;;;;;4962154;28;20372;-73
2022/09/05 11:33:17;;;;;;;4.78;2.10;;;26.70;99.90;;;;;;4962325;29;20019;-71
2022/09/05 11:35:54;;;;;;;3.58;2.20;;;26.80;99.90;;;;;;4961552;28;20090;-70
2022/09/05 11:38:51;;;;;;;3.80;1.80;;;26.80;99.90;;;;;;4961813;29;20039;-72
2022/09/05 11:41:42;;;;;;;39.00;2.53;;;26.90;99.90;;;;;;4961156;28;20066;-73
2022/09/05 11:44:21;;;;;;;3.05;1.95;;;27.00;99.90;;;;;;4963515;28;20027;-72
2022/09/05 11:47:04;;;;;;;3.35;1.70;;;27.20;99.90;;;;;;4963227;28;20027;-74
2022/09/05 11:49:55;;;;;;;3.05;2.08;;;27.30;99.90;;;;;;4970863;28;20043;-72
2022/09/05 11:52:40;;;;;;;3.88;1.58;;;27.40;99.90;;;;;;4982576;28;20399;-73
2022/09/05 11:55:33;;;;;;;5.40;1.85;;;27.50;99.90;;;;;;4982121;28;20202;-73
2022/09/05 11:58:36;;;;;;;14.35;1.65;;;27.50;99.90;;;;;;4982709;28;20026;-75
2022/09/05 12:01:42;;;;;;;4.50;2.33;;;27.50;99.90;;;;;;4982036;28;20054;-73
2022/09/05 12:04:42;;;;;;;2.45;1.80;;;27.60;99.90;;;;;;4981559;28;20073;-74
2022/09/05 12:07:22;;;;;;;3.83;1.75;;;27.80;99.90;;;;;;4982708;28;20023;-75
2022/09/05 12:10:13;;;;;;;8.40;1.80;;;28.10;99.90;;;;;;4965251;28;20042;-75
2022/09/05 12:13:14;;;;;;;3.28;1.50;;;28.10;99.90;;;;;;4982943;28;20018;-74
2022/09/05 12:15:44;;;;;;;3.40;1.63;;;28.20;99.90;;;;;;4978796;28;20039;-72
2022/09/05 12:18:27;;;;;;;10.77;1.65;;;28.40;99.90;;;;;;4982393;28;20022;-76
2022/09/05 12:20:59;;;;;;;3.35;1.85;;;28.50;99.90;;;;;;4965132;28;20038;-75
2022/09/05 12:23:46;;;;;;;3.60;2.03;;;28.50;99.90;;;;;;4982297;28;20035;-73
2022/09/05 12:26:35;;;;;;;2.47;1.48;;;28.50;99.90;;;;;;4982535;28;20046;-74
2022/09/05 12:29:08;;;;;;;5.18;1.80;;;28.50;99.90;;;;;;4982364;28;20023;-75
2022/09/05 12:31:49;;;;;;;5.07;1.50;;;28.50;99.90;;;;;;4981432;28;20034;-77
2022/09/05 12:34:51;;;;;;;4.60;1.70;;;28.50;99.90;;;;;;4964991;28;20050;-72
2022/09/05 12:37:34;;;;;;;2.38;1.23;;;28.60;99.90;;;;;;4964245;28;20031;-75
2022/09/05 12:40:09;;;;;;;3.22;1.55;;;28.60;99.90;;;;;;4982361;28;20058;-78
2022/09/05 12:42:52;;;;;;;2.90;1.70;;;28.60;99.90;;;;;;4981906;28;20039;-77
2022/09/05 12:45:18;;;;;;;3.97;1.45;;;28.60;99.90;;;;;;4981412;28;20130;-75
2022/09/05 12:48:03;;;;;;;5.07;1.38;;;28.70;99.90;;;;;;4982304;28;20042;-75
2022/09/05 12:51:03;;;;;;;1.88;1.33;;;28.70;99.90;;;;;;4964854;28;20149;-71
2022/09/05 12:53:46;;;;;;;2.97;1.50;;;28.80;99.90;;;;;;4982345;28;20023;-73
2022/09/05 12:56:30;;;;;;;2.20;1.05;;;28.80;99.90;;;;;;4982804;28;20046;-74
2022/09/05 12:58:57;;;;;;;1.55;1.00;;;28.90;99.90;;;;;;4982224;28;20110;-75
2022/09/05 13:01:39;;;;;;;4.70;1.50;;;29.00;99.90;;;;;;4982657;28;20058;-75
2022/09/05 13:04:17;;;;;;;1.85;1.20;;;29.10;99.90;;;;;;4964516;28;20058;-76
2022/09/05 13:07:15;;;;;;;1.77;1.40;;;29.20;99.90;;;;;;4964943;28;20041;-75
2022/09/05 13:09:58;;;;;;;3.67;2.30;;;29.30;99.60;;;;;;4976601;28;20159;-76
2022/09/05 13:12:30;;;;;;;3.15;2.58;;;29.40;99.90;;;;;;4982135;28;20031;-75
2022/09/05 13:15:07;;;;;;;2.80;1.92;;;29.50;99.90;;;;;;4967709;28;20090;-73
2022/09/05 13:17:42;;;;;;;3.33;1.65;;;29.60;99.60;;;;;;4986072;28;20029;-74
2022/09/05 13:20:33;;;;;;;4.57;1.90;;;29.80;99.90;;;;;;4985332;28;20023;-71
2022/09/05 13:23:18;;;;;;;2.50;1.95;;;29.90;99.70;;;;;;4968237;28;20027;-77
2022/09/05 13:25:51;;;;;;;4.43;2.05;;;30.10;99.20;;;;;;4968075;28;20027;-75
2022/09/05 13:28:18;;;;;;;3.83;1.83;;;30.00;99.90;;;;;;4985994;28;20437;-75
2022/09/05 13:31:06;;;;;;;3.95;2.10;;;30.10;99.60;;;;;;4985557;28;20042;-73
2022/09/05 13:33:45;;;;;;;2.20;1.90;;;30.20;99.40;;;;;;4985612;28;20037;-75
2022/09/05 13:36:20;;;;;;;3.45;2.08;;;30.30;99.50;;;;;;4985425;28;20038;-74
2022/09/05 13:39:00;;;;;;;3.97;2.03;;;30.50;99.40;;;;;;4984498;28;20081;-73
2022/09/05 13:41:41;;;;;;;3.55;2.13;;;30.60;98.90;;;;;;4985665;28;20066;-76
2022/09/05 13:44:12;;;;;;;2.35;1.80;;;30.50;99.20;;;;;;4985373;28;20490;-72
2022/09/05 13:46:50;;;;;;;4.60;2.22;;;30.50;99.70;;;;;;4985104;28;20030;-74
2022/09/05 13:49:21;;;;;;;6.60;2.45;;;30.60;99.20;;;;;;4984933;28;20511;-74
2022/09/05 13:51:51;;;;;;;3.45;1.90;;;30.50;99.20;;;;;;4985394;28;20023;-76
2022/09/05 13:54:46;;;;;;;9.00;2.50;;;30.50;99.00;;;;;;4985004;28;20023;-76
2022/09/05 13:57:29;;;;;;;3.40;2.22;;;30.50;98.90;;;;;;4984753;28;20686;-74
2022/09/05 14:00:16;;;;;;;3.78;2.35;;;30.60;99.20;;;;;;4984582;28;20039;-73
2022/09/05 14:03:01;;;;;;;4.63;2.45;;;30.60;98.20;;;;;;4984922;28;20589;-68
2022/09/05 14:06:01;;;;;;;6.07;1.92;;;30.40;98.60;;;;;;4985353;28;20041;-72
2022/09/05 14:09:02;;;;;;;2.83;1.85;;;30.20;98.70;;;;;;4984690;28;20026;-73
2022/09/05 14:12:02;;;;;;;3.13;2.15;;;30.10;98.80;;;;;;4985076;28;20054;-74
2022/09/05 14:14:49;;;;;;;4.28;1.75;;;30.20;98.50;;;;;;4984901;28;20509;-73
2022/09/05 14:17:22;;;;;;;4.15;2.20;;;30.30;99.50;;;;;;4984238;28;20037;-72
2022/09/05 14:22:44;;;;;;;4.82;1.70;;;30.20;99.30;;;;;;4984518;28;20097;-71
2022/09/05 14:25:36;;;;;;;3.08;1.77;;;30.00;99.00;;;;;;4984687;28;20031;-73
2022/09/05 14:28:05;;;;;;;7.25;2.08;;;29.80;98.70;;;;;;4984462;28;20027;-73
2022/09/05 14:30:44;;;;;;;2.75;1.48;;;29.70;99.10;;;;;;4982081;28;20046;-75
2022/09/05 14:33:19;;;;;;;3.15;1.67;;;29.80;99.00;;;;;;4982947;28;20027;-75
2022/09/05 14:35:57;;;;;;;9.25;2.50;;;30.00;99.40;;;;;;4984877;28;20063;-75
2022/09/05 14:38:38;;;;;;;2.70;1.88;;;30.30;99.00;;;;;;4983477;28;20041;-73
2022/09/05 14:41:24;;;;;;;10.20;2.58;;;30.70;99.10;;;;;;4967280;28;20031;-77
2022/09/05 14:44:26;;;;;;;3.70;1.98;;;31.30;97.80;;;;;;4983750;28;20122;-76
2022/09/05 14:47:16;;;;;;;3.30;1.63;;;31.90;97.00;;;;;;4966829;28;20045;-71
2022/09/05 14:50:05;;;;;;;2.58;1.50;;;32.30;97.40;;;;;;4981122;28;20086;-72
2022/09/05 14:52:33;;;;;;;2.53;1.40;;;32.70;96.90;;;;;;4983734;28;20042;-74
2022/09/05 14:55:01;;;;;;;1.58;1.30;;;33.10;97.90;;;;;;4982551;28;20062;-69
2022/09/05 14:57:32;;;;;;;7.63;1.63;;;33.50;97.00;;;;;;4983724;28;20026;-73
2022/09/05 15:00:01;;;;;;;4.28;1.67;;;33.80;97.30;;;;;;4984263;28;20023;-75
2022/09/05 15:02:36;;;;;;;4.28;1.98;;;34.00;97.70;;;;;;4966179;28;20031;-73
2022/09/05 15:05:07;;;;;;;2.28;1.35;;;34.10;96.80;;;;;;4983573;28;20479;-74
2022/09/05 15:07:37;;;;;;;2.47;1.48;;;34.10;96.60;;;;;;4984028;28;20354;-71
2022/09/05 15:10:18;;;;;;;1.95;1.15;;;34.20;96.70;;;;;;4983472;28;20090;-73
2022/09/05 15:13:25;;;;;;;1.35;1.10;;;34.40;95.60;;;;;;4981953;28;20065;-71
2022/09/05 15:16:14;;;;;;;1.83;1.30;;;34.60;94.40;;;;;;4981178;28;20367;-71
2022/09/05 15:18:46;;;;;;;2.50;1.60;;;34.80;96.30;;;;;;4965742;28;20414;-73
2022/09/05 15:21:28;;;;;;;1.80;1.30;;;34.80;95.90;;;;;;4983807;28;20043;-73
2022/09/05 15:24:19;;;;;;;2.28;1.20;;;34.80;95.00;;;;;;4983331;28;20042;-74
2022/09/05 15:26:59;;;;;;;2.38;1.10;;;34.80;96.10;;;;;;4983635;28;20027;-73
2022/09/05 15:29:28;;;;;;;2.60;1.42;;;34.70;94.90;;;;;;4983769;28;20049;-76
2022/09/05 15:32:21;;;;;;;1.73;1.33;;;34.60;95.80;;;;;;4983382;28;20023;-74
2022/09/05 15:34:49;;;;;;;5.90;1.60;;;34.60;94.20;;;;;;4983370;28;20071;-73
2022/09/05 15:37:36;;;;;;;2.88;1.67;;;34.60;95.10;;;;;;4981895;28;20035;-74
2022/09/05 15:40:05;;;;;;;2.05;1.20;;;34.40;93.90;;;;;;4964291;28;20141;-74
2022/09/05 15:42:35;;;;;;;5.80;1.55;;;34.20;95.30;;;;;;4982452;28;20035;-77
2022/09/05 15:45:04;;;;;;;7.60;1.60;;;33.70;95.20;;;;;;4979833;28;20038;-73
2022/09/05 15:47:33;;;;;;;3.08;1.65;;;33.50;95.30;;;;;;4979906;28;20538;-75
2022/09/05 15:50:03;;;;;;;2.88;1.27;;;33.30;95.30;;;;;;4979698;28;20054;-75
2022/09/05 15:52:45;;;;;;;3.63;1.52;;;33.10;95.20;;;;;;4980574;28;20719;-74
2022/09/05 15:55:21;;;;;;;2.10;1.42;;;33.20;95.10;;;;;;4980439;28;20038;-72
2022/09/05 15:57:59;;;;;;;8.10;1.42;;;33.40;95.30;;;;;;4979105;28;20038;-73
2022/09/05 16:00:33;;;;;;;2.05;1.50;;;33.60;95.50;;;;;;4977727;28;20043;-75
2022/09/05 16:03:27;;;;;;;4.35;1.35;;;33.80;94.90;;;;;;4980135;28;20410;-74
2022/09/05 16:05:56;;;;;;;1.70;1.23;;;33.80;94.10;;;;;;4956757;28;20058;-75
2022/09/05 16:08:27;;;;;;;2.92;1.58;;;33.80;94.80;;;;;;4982167;28;20030;-79
2022/09/05 16:11:23;;;;;;;5.63;1.38;;;33.70;94.70;;;;;;4982418;28;20038;-78
2022/09/05 16:14:11;;;;;;;2.70;1.50;;;33.70;93.70;;;;;;4980974;28;20019;-73
2022/09/05 16:16:42;;;;;;;7.70;1.45;;;33.60;94.50;;;;;;4982172;28;20117;-74
2022/09/05 16:19:16;;;;;;;4.97;1.35;;;33.60;94.40;;;;;;4982065;28;20033;-75
2022/09/05 16:21:44;;;;;;;5.25;1.77;;;33.60;93.90;;;;;;4982249;28;20030;-74
2022/09/05 16:24:34;;;;;;;3.47;1.85;;;33.60;94.20;;;;;;4982580;28;20023;-73
2022/09/05 16:27:04;;;;;;;3.72;1.75;;;33.50;93.50;;;;;;4981227;28;20037;-73
2022/09/05 16:29:36;;;;;;;12.40;1.77;;;33.50;94.10;;;;;;4981940;28;20023;-74
2022/09/05 16:32:27;;;;;;;6.18;2.08;;;33.20;94.10;;;;;;4964757;28;20439;-73
2022/09/05 16:35:09;;;;;;;3.47;1.55;;;33.00;94.20;;;;;;4982279;28;20030;-74
2022/09/05 16:37:41;;;;;;;3.95;1.63;;;32.70;94.40;;;;;;4982586;28;20030;-74
2022/09/05 16:40:35;;;;;;;2.42;1.50;;;32.30;94.40;;;;;;4981564;28;20090;-76
2022/09/05 16:43:11;;;;;;;2.70;1.42;;;31.90;94.40;;;;;;4982072;28;20071;-75
2022/09/05 16:45:45;;;;;;;3.80;1.83;;;31.50;94.80;;;;;;4982792;28;20033;-73
2022/09/05 16:48:48;;;;;;;5.95;2.00;;;31.20;95.00;;;;;;4982705;28;20095;-73
2022/09/05 16:51:35;;;;;;;2.97;1.50;;;30.80;95.00;;;;;;4945974;29;20044;-74
2022/09/05 16:54:25;;;;;;;4.57;1.88;;;30.70;95.30;;;;;;4947513;29;20023;-71
2022/09/05 16:57:00;;;;;;;1.67;1.20;;;30.70;95.30;;;;;;4944428;29;20460;-72
2022/09/05 16:59:29;;;;;;;3.25;1.63;;;30.70;95.20;;;;;;4946742;29;20415;-75
2022/09/05 17:02:28;;;;;;;2.15;1.40;;;30.70;95.20;;;;;;4947560;29;20028;-72
2022/09/05 17:05:10;;;;;;;15.95;2.00;;;30.70;95.00;;;;;;4947663;29;20024;-72
2022/09/05 17:08:16;;;;;;;2.45;1.60;;;30.50;94.90;;;;;;4947825;29;20545;-72
2022/09/05 17:10:43;;;;;;;3.13;1.80;;;30.40;94.90;;;;;;4946920;29;20035;-72
2022/09/05 17:13:34;;;;;;;2.60;1.65;;;30.30;95.10;;;;;;4947659;29;20019;-71
2022/09/05 17:16:02;;;;;;;2.58;1.77;;;30.20;95.40;;;;;;4936896;29;20044;-73
2022/09/05 17:18:33;;;;;;;2.13;1.70;;;30.00;95.40;;;;;;4947100;29;20026;-72
2022/09/05 17:21:06;;;;;;;2.92;1.77;;;29.60;95.50;;;;;;4947158;29;20043;-73
2022/09/05 17:23:37;;;;;;;3.38;1.70;;;29.20;95.80;;;;;;4946736;29;20468;-73